This is the latest recevied weather packets stored in our database for station/object PP5EO-1. If no packets are shown the sender has not sent any weather packets the latest 1 day(s).
| Time | Temp. | Humidity | Pressure | Rain* | Wind** | Luminosity | Snow |
|---|---|---|---|---|---|---|---|
| 1778114592 | 22.22° C | 100% | 1016.3 hPa | - | - | - | - |
| 1778113411 | 22.22° C | 100% | 1016.5 hPa | - | - | - | - |
| 1778112809 | 22.22° C | 100% | 1016.5 hPa | - | - | - | - |
| 1778111617 | 22.78° C | 99% | 1016.6 hPa | - | - | - | - |
| 1778110426 | 22.78° C | 97% | 1016.4 hPa | - | - | - | - |
| 1778107467 | 23.33° C | 95% | 1015.9 hPa | - | - | - | - |
| 1778105668 | 23.33° C | 94% | 1015.7 hPa | - | - | - | - |
| 1778097947 | 24.44° C | 86% | 1015.1 hPa | - | - | - | - |
| 1778094362 | 26.11° C | 77% | 1015.2 hPa | - | - | - | - |
| 1778091982 | 27.78° C | 70% | 1015.5 hPa | - | - | - | - |
| 1778091388 | 28.33° C | 66% | 1015.6 hPa | - | - | - | - |
| 1778090196 | 28.89° C | 64% | 1015.8 hPa | - | - | - | - |
| 1778089603 | 30° C | 59% | 1016 hPa | - | - | - | - |
| 1778082095 | 28.89° C | 63% | 1018.1 hPa | - | - | - | - |
| 1778081501 | 29.44° C | 61% | 1018.3 hPa | - | - | - | - |
| 1778079715 | 30° C | 59% | 1018.9 hPa | - | - | - | - |
| 1778079120 | 28.89° C | 64% | 1019.1 hPa | - | - | - | - |
| 1778076741 | 28.33° C | 64% | 1019.7 hPa | - | - | - | - |
| 1778073765 | 22.78° C | 88% | 1020 hPa | - | - | - | - |
| 1778069005 | 22.22° C | 92% | 1020.1 hPa | - | - | - | - |
| 1778066030 | 20.56° C | 100% | 1019.8 hPa | - | - | - | - |
| 1778064840 | 20.56° C | 100% | 1019.5 hPa | - | - | - | - |
| 1778061270 | 20° C | 100% | 1018.9 hPa | - | - | - | - |
| 1778060675 | 20° C | 100% | 1018.9 hPa | - | - | - | - |
| 1778060081 | 20° C | 100% | 1018.8 hPa | - | - | - | - |
* Rain since midnight (hover to see other rain measurements)
** Current wind speed in m/s (hover to see current wind gust speed)